PABI/DJN METAR and TAF weather

Enter ICAO airport designator
Station Type Date Time Source
PABI METAR 2019/12/06 01:53 UTC NOAA

PABI 060153Z 11013KT 10SM CLR M21/M24 A2983 RMK AO2 SLP165 T12111239


Station Type Date Time Source
PABI Decoded METAR 2019/12/06 01:53 UTC NOAA

ALLEN ARMY AIRFIELD, AK, United States (PABI) 64-00N 145-43W 391M
Dec 05, 2019 - 08:53 PM EST / 2019.12.06 0153 UTC
Wind: from the ESE (110 degrees) at 15 MPH (13 KT):0
Visibility: 10 mile(s):0
Sky conditions: clear
Temperature: -6.0 F (-21.1 C)
Windchill: -27 F (-33 C):2
Dew Point: -11.0 F (-23.9 C)
Relative Humidity: 78%
Pressure (altimeter): 29.83 in. Hg (1010 hPa)
ob: PABI 060153Z 11013KT 10SM CLR M21/M24 A2983 RMK AO2 SLP165 T12111239
cycle: 2

Station Type Date Time Source
PABI TAF 2019/12/05 22:39 UTC NOAA

TAF PABI 052236Z 0522/0704 09009KT 9999 SKC QNH2968INS TXM20/0612Z TNM33/0615Z FOR MIL USE ONLY

Example: see airport list